Fire Island, New York
Current Conditions -  °F | °C
As of 3:56 AM on Thursday 23 Oct 2014 (Local Time) from KISP Reporting Station
Overcast Overcast  
Wind Chill: 52°   Ceiling: 1800
Heat Index: 52°   Visibility: 10mi
Dew Point: 47°   Wind: 23mph
Humidity: 83%   Direction: 10°N
Pressure: 29.63"   Gusts: 38mph
Location:  40.6448°N, 73.1603°W
Report Text: KISP 230756Z AUTO 01020G33KT 10SM OVC018 11/08 A2963 RMK AO2 PK WND 02033/0721 RAB15E24 SLP032 P0000 T01110083
Loading
Personal Weather Stations






























Interactive Weather Map
Tropical Storm Tracking
New forecast layout! Learn more

10-Day Weather Forecast

Advertisements
Track Severe Weather on mobile